Time;durP1;ratioP1;P1;durP2;ratioP2;P2;SDS_P1;SDS_P2;PMS_P1;PMS_P2;Temp;Humidity;BMP_temperature;BMP_pressure;BME280_temperature;BME280_humidity;BME280_pressure;Samples;Min_cycle;Max_cycle;Signal;HPM_P1;HPM_P2
2022/10/12 00:01:23;;;;;;;12.80;3.30;;;8.60;99.90;;;;;;6039513;23;20247;-89
2022/10/12 00:03:49;;;;;;;14.85;4.10;;;8.60;99.90;;;;;;6065414;23;20046;-89
2022/10/12 00:06:19;;;;;;;11.30;3.55;;;8.60;99.90;;;;;;6064299;23;20070;-89
2022/10/12 00:08:46;;;;;;;9.55;3.00;;;8.50;99.90;;;;;;6042631;23;20017;-89
2022/10/12 00:11:19;;;;;;;9.80;3.58;;;7.90;99.90;;;;;;6042855;23;20011;-89
2022/10/12 00:13:44;;;;;;;9.45;3.13;;;8.40;99.90;;;;;;6041570;23;20393;-89
2022/10/12 00:16:12;;;;;;;11.95;3.72;;;8.40;99.90;;;;;;6040733;23;20105;-89
2022/10/12 00:18:38;;;;;;;12.48;3.30;;;8.40;99.90;;;;;;6044252;23;20022;-89
2022/10/12 00:21:13;;;;;;;9.63;3.40;;;9.30;99.90;;;;;;6045934;23;20020;-89
2022/10/12 00:23:40;;;;;;;11.43;3.40;;;8.30;99.90;;;;;;6067954;23;20022;-89
2022/10/12 00:26:09;;;;;;;9.48;2.97;;;8.80;99.90;;;;;;6044238;23;20018;-89
2022/10/12 00:28:35;;;;;;;8.73;2.95;;;8.20;99.90;;;;;;6041329;23;20097;-89
2022/10/12 00:31:05;;;;;;;10.52;3.30;;;8.20;99.90;;;;;;6038681;23;20439;-90
2022/10/12 00:33:31;;;;;;;10.40;3.17;;;9.00;99.90;;;;;;6041197;23;20014;-89
2022/10/12 00:35:57;;;;;;;9.65;3.17;;;8.10;99.90;;;;;;6065969;23;20073;-89
2022/10/12 00:38:23;;;;;;;10.13;3.50;;;8.60;99.90;;;;;;6063943;23;20030;-89
2022/10/12 00:40:49;;;;;;;12.63;3.13;;;8.10;99.90;;;;;;6065549;23;20033;-89
2022/10/12 00:43:24;;;;;;;9.57;3.20;;;8.10;99.90;;;;;;6039515;23;20030;-88
2022/10/12 00:45:50;;;;;;;10.18;3.45;;;9.10;99.90;;;;;;6064760;23;20330;-89
2022/10/12 00:48:16;;;;;;;11.18;3.08;;;8.90;99.90;;;;;;6063209;23;20034;-89
2022/10/12 00:50:42;;;;;;;9.45;3.00;;;8.10;99.90;;;;;;6040135;23;20531;-89
2022/10/12 00:53:16;;;;;;;12.05;3.35;;;8.80;99.90;;;;;;6040445;23;20048;-89
2022/10/12 00:55:52;;;;;;;10.50;3.45;;;9.00;99.90;;;;;;6041254;23;20023;-89
2022/10/12 00:58:19;;;;;;;8.50;3.00;;;7.90;99.90;;;;;;6063897;23;20061;-89
2022/10/12 01:00:45;;;;;;;10.93;3.45;;;8.40;99.90;;;;;;6041219;23;20049;-88
2022/10/12 01:03:14;;;;;;;10.15;3.05;;;7.90;99.90;;;;;;6040244;23;20022;-89
2022/10/12 01:05:40;;;;;;;10.90;3.20;;;7.90;99.90;;;;;;6065665;23;20014;-89
2022/10/12 01:08:06;;;;;;;11.60;3.35;;;7.80;99.90;;;;;;6041000;23;20028;-89
2022/10/12 01:10:32;;;;;;;10.48;3.15;;;7.90;99.90;;;;;;6064285;23;20094;-89
2022/10/12 01:12:58;;;;;;;10.70;3.38;;;7.80;99.90;;;;;;6040720;23;20046;-89
2022/10/12 01:15:33;;;;;;;12.80;3.55;;;7.90;99.90;;;;;;6040524;23;20018;-89
2022/10/12 01:18:07;;;;;;;9.15;3.20;;;7.80;99.90;;;;;;6039955;23;20081;-89
2022/10/12 01:20:52;;;;;;;10.23;3.35;;;7.80;99.90;;;;;;6064692;23;20018;-90
2022/10/12 01:23:17;;;;;;;12.35;3.72;;;7.80;99.90;;;;;;6063912;23;20029;-89
2022/10/12 01:26:05;;;;;;;10.32;3.85;;;8.40;99.90;;;;;;6065472;23;20022;-89
2022/10/12 01:28:50;;;;;;;11.00;3.97;;;7.80;99.90;;;;;;6064773;23;20089;-89
2022/10/12 01:31:34;;;;;;;10.85;3.90;;;7.70;99.90;;;;;;6063738;23;20097;-89
2022/10/12 01:34:14;;;;;;;9.88;3.40;;;7.70;99.90;;;;;;6063402;23;20089;-89
2022/10/12 01:36:45;;;;;;;13.02;3.72;;;7.70;99.90;;;;;;6039094;23;20073;-89
2022/10/12 01:39:13;;;;;;;11.70;4.30;;;8.40;99.90;;;;;;6064757;23;20262;-89
2022/10/12 01:41:46;;;;;;;15.30;4.43;;;7.70;99.90;;;;;;6040008;23;20018;-89
2022/10/12 01:44:20;;;;;;;15.45;4.22;;;7.70;99.90;;;;;;6039918;23;20069;-89
2022/10/12 01:46:46;;;;;;;10.65;4.45;;;8.80;99.90;;;;;;6040035;23;20097;-89
2022/10/12 01:49:15;;;;;;;12.40;4.63;;;7.80;99.90;;;;;;6064277;23;20444;-89
2022/10/12 01:51:55;;;;;;;15.40;4.88;;;9.10;99.90;;;;;;6040718;23;20076;-89
2022/10/12 01:54:46;;;;;;;12.45;4.43;;;7.80;99.90;;;;;;6041113;23;20318;-89
2022/10/12 01:57:14;;;;;;;11.80;4.18;;;7.80;99.90;;;;;;6039496;23;20025;-89
2022/10/12 01:59:49;;;;;;;11.90;4.15;;;7.80;99.90;;;;;;6040018;23;20452;-89
2022/10/12 02:02:49;;;;;;;13.07;4.32;;;7.80;99.90;;;;;;6039900;23;20015;-89
2022/10/12 02:05:31;;;;;;;12.88;4.57;;;7.80;99.90;;;;;;6040336;23;20353;-88
2022/10/12 02:08:22;;;;;;;15.70;3.80;;;7.80;99.90;;;;;;6063623;23;20085;-89
2022/10/12 02:11:00;;;;;;;13.07;4.03;;;7.80;99.90;;;;;;6040259;23;20058;-89
2022/10/12 02:13:30;;;;;;;11.02;3.95;;;7.80;99.90;;;;;;6040366;23;20065;-89
2022/10/12 02:15:58;;;;;;;11.98;3.67;;;7.80;99.90;;;;;;6040035;23;20097;-89
2022/10/12 02:18:26;;;;;;;12.35;3.88;;;7.80;99.90;;;;;;6039386;23;20057;-89
2022/10/12 02:20:53;;;;;;;15.02;4.57;;;8.70;99.90;;;;;;6040907;23;20018;-88
2022/10/12 02:23:22;;;;;;;12.32;3.65;;;8.30;99.90;;;;;;6039924;23;20093;-88
2022/10/12 02:25:52;;;;;;;12.55;3.97;;;7.80;99.90;;;;;;6041320;23;20026;-89
2022/10/12 02:28:21;;;;;;;9.38;3.50;;;9.30;99.90;;;;;;6063318;23;20033;-89
2022/10/12 02:31:37;;;;;;;11.50;3.50;;;8.30;99.90;;;;;;6040034;23;20093;-89
2022/10/12 02:34:14;;;;;;;10.85;3.25;;;7.80;99.90;;;;;;5898572;24;20269;-89
2022/10/12 02:37:14;;;;;;;11.15;3.38;;;7.70;99.90;;;;;;6046887;23;20014;-89
2022/10/12 02:39:49;;;;;;;8.93;2.90;;;7.70;99.90;;;;;;6062760;23;20057;-89
2022/10/12 02:42:21;;;;;;;8.00;2.65;;;8.90;99.90;;;;;;6064203;23;20054;-89
2022/10/12 02:44:48;;;;;;;11.35;2.83;;;8.30;99.90;;;;;;6040833;23;20476;-89
2022/10/12 02:47:16;;;;;;;9.80;3.20;;;8.90;99.90;;;;;;6017670;23;20014;-89
2022/10/12 02:49:44;;;;;;;9.65;3.10;;;7.70;99.90;;;;;;6065610;23;20357;-89
2022/10/12 02:52:10;;;;;;;12.68;3.67;;;7.70;99.90;;;;;;6038842;23;20460;-88
2022/10/12 02:54:36;;;;;;;9.90;3.22;;;7.70;99.90;;;;;;6015501;23;20085;-89
2022/10/12 02:57:02;;;;;;;9.00;3.33;;;7.70;99.90;;;;;;6018965;23;20121;-88
2022/10/12 02:59:28;;;;;;;9.07;2.92;;;7.70;99.90;;;;;;6067916;23;20029;-89
2022/10/12 03:01:53;;;;;;;10.00;3.10;;;8.10;99.90;;;;;;6041362;23;20034;-89
2022/10/12 03:04:19;;;;;;;9.63;2.92;;;7.70;99.90;;;;;;6041841;23;20456;-88
2022/10/12 03:06:45;;;;;;;7.55;2.72;;;7.70;99.90;;;;;;6015958;23;20062;-89
2022/10/12 03:09:10;;;;;;;8.70;2.83;;;8.60;99.90;;;;;;6040593;23;20056;-89
2022/10/12 03:11:36;;;;;;;8.38;2.72;;;8.90;99.90;;;;;;6016031;23;20127;-88
2022/10/12 03:14:03;;;;;;;8.30;2.88;;;8.40;99.90;;;;;;6040927;23;20014;-88
2022/10/12 03:16:29;;;;;;;8.25;2.80;;;8.90;99.90;;;;;;6063058;23;20038;-88
2022/10/12 03:18:54;;;;;;;8.90;2.80;;;7.90;99.90;;;;;;6066606;23;20022;-89
2022/10/12 03:21:20;;;;;;;7.25;2.70;;;8.90;99.90;;;;;;6017207;23;20319;-88
2022/10/12 03:23:46;;;;;;;8.38;2.72;;;7.60;99.90;;;;;;6041076;23;20018;-89
2022/10/12 03:26:11;;;;;;;7.90;2.80;;;7.60;99.90;;;;;;6065472;23;20062;-89
2022/10/12 03:28:37;;;;;;;7.38;2.60;;;8.10;99.90;;;;;;6017657;23;20571;-89
2022/10/12 03:31:03;;;;;;;9.55;2.80;;;9.00;99.90;;;;;;6042037;23;20040;-89
2022/10/12 03:33:29;;;;;;;9.98;2.92;;;7.60;99.90;;;;;;6017556;23;20271;-89
2022/10/12 03:35:54;;;;;;;8.25;2.53;;;7.60;99.90;;;;;;6041270;23;20066;-89
2022/10/12 03:38:20;;;;;;;7.78;2.85;;;7.60;99.90;;;;;;6016867;23;20033;-89
2022/10/12 03:40:46;;;;;;;7.78;3.00;;;7.60;99.90;;;;;;6017537;23;20066;-88
2022/10/12 03:43:12;;;;;;;8.15;2.72;;;7.50;99.90;;;;;;6088755;23;20021;-89
2022/10/12 03:45:38;;;;;;;7.28;2.70;;;7.80;99.90;;;;;;6041898;23;20053;-89
2022/10/12 03:48:05;;;;;;;8.07;2.83;;;8.30;99.90;;;;;;6040055;23;20083;-89
2022/10/12 03:50:33;;;;;;;9.93;3.05;;;7.50;99.90;;;;;;6041812;23;20014;-89
2022/10/12 03:53:00;;;;;;;8.18;3.08;;;7.40;99.90;;;;;;6041255;23;20014;-89
2022/10/12 03:55:26;;;;;;;9.00;2.95;;;7.40;99.90;;;;;;6064463;23;20450;-89
2022/10/12 03:57:51;;;;;;;9.43;3.22;;;7.40;99.90;;;;;;6041347;23;20413;-89
2022/10/12 04:00:17;;;;;;;8.15;2.88;;;7.40;99.90;;;;;;6017661;23;20177;-89
2022/10/12 04:02:43;;;;;;;11.05;3.22;;;7.40;99.90;;;;;;6065322;23;20058;-88
2022/10/12 04:05:09;;;;;;;8.70;2.92;;;7.60;99.90;;;;;;6065576;23;20019;-88
2022/10/12 04:07:35;;;;;;;9.40;2.70;;;7.30;99.90;;;;;;6041078;23;20015;-88
2022/10/12 04:10:01;;;;;;;8.52;2.90;;;7.30;99.90;;;;;;6041422;23;20010;-88
2022/10/12 04:12:27;;;;;;;7.90;2.80;;;7.30;99.90;;;;;;6065248;23;20014;-88
2022/10/12 04:14:53;;;;;;;8.45;2.60;;;7.30;99.90;;;;;;6040673;23;20049;-88
2022/10/12 04:17:18;;;;;;;7.85;2.88;;;7.30;99.90;;;;;;6016829;23;20025;-88
2022/10/12 04:19:44;;;;;;;8.27;2.80;;;8.30;99.90;;;;;;6041600;23;20024;-88
2022/10/12 04:22:10;;;;;;;8.82;2.47;;;7.20;99.90;;;;;;6063933;23;20014;-88
2022/10/12 04:24:36;;;;;;;7.47;2.55;;;7.20;99.90;;;;;;6040771;23;20124;-89
2022/10/12 04:27:02;;;;;;;7.35;2.40;;;8.30;99.90;;;;;;6040717;23;20482;-89
2022/10/12 04:29:27;;;;;;;8.50;2.50;;;7.20;99.90;;;;;;6065281;23;20042;-89
2022/10/12 04:31:53;;;;;;;8.60;2.58;;;7.20;99.90;;;;;;6040893;23;20010;-89
2022/10/12 04:34:19;;;;;;;7.95;2.53;;;7.90;99.90;;;;;;6041362;23;20015;-89
2022/10/12 04:36:45;;;;;;;8.63;2.65;;;7.20;99.90;;;;;;6040414;23;20609;-88
2022/10/12 04:39:12;;;;;;;6.03;2.33;;;;;;;;;;6065343;23;20041;-88
2022/10/12 04:41:38;;;;;;;9.93;2.88;;;7.10;99.90;;;;;;6063950;23;20361;-89
2022/10/12 04:44:05;;;;;;;8.70;2.55;;;7.10;99.90;;;;;;6039041;23;20119;-88
2022/10/12 04:46:31;;;;;;;9.77;2.90;;;7.60;99.90;;;;;;6039997;23;20021;-88
2022/10/12 04:48:57;;;;;;;9.75;2.97;;;8.50;99.90;;;;;;6040298;23;20014;-89
2022/10/12 04:51:23;;;;;;;11.45;2.85;;;7.80;99.90;;;;;;6016119;23;20085;-89
2022/10/12 04:53:49;;;;;;;8.55;3.03;;;7.10;99.90;;;;;;6015145;23;20113;-89
2022/10/12 04:56:15;;;;;;;8.88;3.15;;;7.30;99.90;;;;;;6036994;23;20488;-89
2022/10/12 04:58:41;;;;;;;11.13;3.13;;;7.10;99.90;;;;;;6063782;23;20018;-89
2022/10/12 05:01:06;;;;;;;12.45;3.40;;;8.20;99.90;;;;;;6041339;23;20018;-89
2022/10/12 05:03:32;;;;;;;14.18;3.53;;;7.20;99.90;;;;;;6017823;23;20029;-88
2022/10/12 05:05:58;;;;;;;10.52;3.03;;;7.80;99.90;;;;;;6065522;23;20029;-89
2022/10/12 05:08:24;;;;;;;10.25;3.10;;;7.20;99.90;;;;;;6018046;23;20085;-88
2022/10/12 05:10:50;;;;;;;9.93;3.15;;;7.60;99.90;;;;;;6065722;23;20022;-88
2022/10/12 05:13:16;;;;;;;11.10;2.80;;;7.10;99.90;;;;;;6017968;23;20070;-88
2022/10/12 05:15:42;;;;;;;8.32;2.90;;;7.10;99.90;;;;;;6017797;23;20101;-88
2022/10/12 05:18:08;;;;;;;10.73;3.00;;;7.10;99.90;;;;;;6040323;23;20495;-88
2022/10/12 05:20:34;;;;;;;10.45;3.13;;;7.10;99.90;;;;;;6065695;23;20022;-88
2022/10/12 05:22:59;;;;;;;13.60;3.35;;;7.50;99.90;;;;;;6018153;23;20061;-88
2022/10/12 05:25:28;;;;;;;11.10;3.40;;;7.10;99.90;;;;;;6018160;23;20021;-88
2022/10/12 05:27:54;;;;;;;11.95;3.45;;;8.20;99.90;;;;;;6065712;23;20294;-88
2022/10/12 05:30:20;;;;;;;12.73;3.55;;;8.00;99.90;;;;;;6041509;23;20021;-89
2022/10/12 05:32:45;;;;;;;12.07;3.30;;;7.10;99.90;;;;;;6041079;23;20019;-89
2022/10/12 05:35:11;;;;;;;10.77;3.42;;;7.00;99.90;;;;;;6051900;23;20022;-88
2022/10/12 05:37:37;;;;;;;12.82;3.40;;;8.40;99.90;;;;;;6042289;23;20030;-88
2022/10/12 05:40:03;;;;;;;14.45;3.50;;;7.00;99.90;;;;;;6032973;23;20057;-89
2022/10/12 05:42:28;;;;;;;8.65;3.35;;;7.00;99.90;;;;;;6020475;23;20277;-88
2022/10/12 05:44:54;;;;;;;9.27;3.20;;;8.60;99.90;;;;;;6037214;23;20214;-89
2022/10/12 05:47:20;;;;;;;12.35;3.58;;;6.90;99.90;;;;;;6036333;23;20014;-88
2022/10/12 05:49:45;;;;;;;13.63;4.18;;;6.90;99.90;;;;;;6041009;23;20385;-88
2022/10/12 05:52:11;;;;;;;15.20;4.20;;;6.90;99.90;;;;;;6059767;23;20011;-88
2022/10/12 05:54:37;;;;;;;11.93;3.70;;;8.60;99.90;;;;;;6061086;23;20045;-89
2022/10/12 05:57:03;;;;;;;16.85;4.43;;;7.10;99.90;;;;;;6026824;23;20014;-88
2022/10/12 05:59:29;;;;;;;14.00;4.15;;;6.90;99.90;;;;;;6032542;23;20033;-88
2022/10/12 06:01:54;;;;;;;15.80;4.38;;;6.90;99.90;;;;;;6035074;23;20456;-89
2022/10/12 06:04:20;;;;;;;14.13;3.97;;;6.90;99.90;;;;;;6009326;23;20093;-91
2022/10/12 06:06:46;;;;;;;15.05;4.10;;;6.90;99.90;;;;;;6060745;23;20015;-89
2022/10/12 06:09:12;;;;;;;11.05;4.45;;;8.40;99.90;;;;;;6059979;23;20069;-90
2022/10/12 06:11:38;;;;;;;13.43;4.20;;;6.90;99.90;;;;;;6063324;23;20034;-88
2022/10/12 06:14:04;;;;;;;14.00;4.85;;;5.50;99.90;;;;;;6012946;23;20014;-91
2022/10/12 06:16:30;;;;;;;12.40;4.47;;;7.00;99.90;;;;;;6037695;23;20041;-88
2022/10/12 06:18:56;;;;;;;14.07;5.22;;;7.70;99.90;;;;;;6035008;23;20307;-92
2022/10/12 06:21:22;;;;;;;15.65;5.00;;;6.90;99.90;;;;;;6037545;23;20473;-90
2022/10/12 06:23:47;;;;;;;12.95;5.03;;;7.40;99.90;;;;;;6024713;23;20015;-90
2022/10/12 06:26:13;;;;;;;13.07;4.63;;;6.90;99.90;;;;;;6035172;23;20025;-90
2022/10/12 06:28:39;;;;;;;10.95;4.40;;;6.80;99.90;;;;;;6041719;23;20015;-92
2022/10/12 06:31:05;;;;;;;10.75;4.55;;;7.70;99.90;;;;;;6037122;23;20516;-91
2022/10/12 06:33:31;;;;;;;17.20;5.38;;;6.80;99.90;;;;;;6062425;23;20524;-92
2022/10/12 06:35:56;;;;;;;12.05;5.47;;;6.80;99.90;;;;;;6036674;23;20121;-93
2022/10/12 06:38:23;;;;;;;14.32;5.57;;;7.10;99.90;;;;;;6013046;23;20027;-89
2022/10/12 06:40:48;;;;;;;12.27;5.63;;;6.80;99.90;;;;;;6012960;23;20635;-93
2022/10/12 06:43:14;;;;;;;13.70;6.05;;;6.80;99.90;;;;;;6012463;23;20050;-88
2022/10/12 06:45:42;;;;;;;18.35;6.82;;;8.30;99.90;;;;;;6036382;23;20453;-91
2022/10/12 06:48:09;;;;;;;17.45;5.97;;;8.30;99.90;;;;;;6011938;23;20007;-90
2022/10/12 06:50:35;;;;;;;16.10;6.45;;;8.00;99.90;;;;;;6014209;23;20078;-90
2022/10/12 06:53:01;;;;;;;18.15;5.97;;;8.50;99.90;;;;;;6039039;23;20479;-89
2022/10/12 06:55:27;;;;;;;16.52;5.90;;;7.10;99.90;;;;;;6015269;23;20023;-92
2022/10/12 06:57:54;;;;;;;16.50;6.25;;;7.10;99.90;;;;;;6036119;23;20022;-92
2022/10/12 07:00:20;;;;;;;14.48;5.80;;;7.20;99.90;;;;;;6013793;23;20089;-90
2022/10/12 07:02:49;;;;;;;13.40;6.25;;;7.20;99.90;;;;;;6038160;23;20113;-90
2022/10/12 07:05:15;;;;;;;14.15;5.80;;;7.30;99.90;;;;;;6038165;23;20027;-89
2022/10/12 07:07:41;;;;;;;17.23;6.43;;;7.40;99.90;;;;;;6013535;23;20011;-92
2022/10/12 07:10:07;;;;;;;15.80;6.32;;;8.10;99.90;;;;;;6035561;23;20019;-90
2022/10/12 07:12:35;;;;;;;16.70;6.15;;;7.50;99.90;;;;;;6012475;23;20074;-89
2022/10/12 07:15:02;;;;;;;14.18;6.40;;;9.30;99.90;;;;;;6013446;23;20026;-89
2022/10/12 07:17:28;;;;;;;16.27;5.72;;;7.60;99.90;;;;;;6013632;23;20018;-88
2022/10/12 07:19:53;;;;;;;17.63;6.40;;;9.10;99.90;;;;;;6014179;23;20033;-88
2022/10/12 07:22:19;;;;;;;15.63;6.07;;;7.80;99.90;;;;;;6015951;23;20117;-88
2022/10/12 07:24:45;;;;;;;12.75;5.88;;;8.10;99.90;;;;;;6015089;23;20022;-90
2022/10/12 07:27:11;;;;;;;12.13;5.45;;;7.90;99.90;;;;;;6038440;23;20018;-89
2022/10/12 07:29:37;;;;;;;16.17;6.43;;;8.00;99.90;;;;;;6016322;23;20505;-92
2022/10/12 07:32:04;;;;;;;16.95;6.82;;;8.10;99.90;;;;;;6016499;23;20010;-90
2022/10/12 07:34:30;;;;;;;16.10;6.82;;;8.20;99.90;;;;;;6016023;23;20520;-89
2022/10/12 07:36:56;;;;;;;17.48;7.43;;;9.50;99.90;;;;;;6019675;23;20018;-89
2022/10/12 07:39:23;;;;;;;16.77;6.93;;;8.40;99.90;;;;;;6067856;23;20015;-91
2022/10/12 07:41:52;;;;;;;19.20;7.47;;;8.50;99.90;;;;;;6045247;23;20027;-89
2022/10/12 07:44:19;;;;;;;20.98;7.28;;;8.60;99.90;;;;;;6068788;23;20089;-88
2022/10/12 07:46:45;;;;;;;18.48;8.32;;;8.50;99.90;;;;;;6044522;23;20042;-87
2022/10/12 07:49:12;;;;;;;18.98;8.20;;;9.30;99.90;;;;;;6044559;23;20017;-88
2022/10/12 07:51:38;;;;;;;16.17;7.80;;;8.60;99.90;;;;;;6021215;23;20057;-90
2022/10/12 07:54:04;;;;;;;18.75;7.85;;;8.60;99.90;;;;;;6020471;23;20239;-88
2022/10/12 07:56:30;;;;;;;20.90;7.65;;;8.60;99.90;;;;;;6044024;23;20057;-87
2022/10/12 07:58:56;;;;;;;18.65;7.88;;;9.00;99.90;;;;;;6020942;23;20093;-89
2022/10/12 08:01:25;;;;;;;21.08;7.45;;;8.70;99.90;;;;;;6042901;23;20460;-91
2022/10/12 08:03:51;;;;;;;16.88;7.53;;;8.70;99.90;;;;;;6068371;23;20018;-90
2022/10/12 08:06:20;;;;;;;17.02;7.63;;;8.60;99.90;;;;;;6044909;23;20019;-89
2022/10/12 08:08:46;;;;;;;17.90;7.88;;;8.90;99.90;;;;;;6045373;23;20062;-89
2022/10/12 08:11:12;;;;;;;21.45;7.72;;;9.00;99.90;;;;;;6044972;23;20018;-89
2022/10/12 08:13:38;;;;;;;17.67;7.43;;;9.10;99.90;;;;;;6044399;23;20018;-91
2022/10/12 08:16:08;;;;;;;14.02;7.18;;;9.20;99.90;;;;;;6045365;23;20014;-88
2022/10/12 08:18:34;;;;;;;16.60;7.40;;;9.40;99.90;;;;;;6044913;23;20050;-88
2022/10/12 08:21:02;;;;;;;16.15;7.03;;;9.50;99.90;;;;;;6045027;23;20358;-90
2022/10/12 08:23:27;;;;;;;18.92;7.50;;;9.60;99.90;;;;;;6043781;23;20029;-89
2022/10/12 08:25:55;;;;;;;15.98;7.25;;;9.70;99.90;;;;;;6069300;23;20022;-89
2022/10/12 08:28:22;;;;;;;20.50;8.05;;;9.80;99.90;;;;;;6067515;23;20070;-90
2022/10/12 08:30:48;;;;;;;17.30;7.53;;;9.90;99.90;;;;;;6068155;23;20014;-87
2022/10/12 08:33:15;;;;;;;17.75;7.93;;;10.00;99.90;;;;;;6043761;23;20011;-89
2022/10/12 08:35:41;;;;;;;17.42;7.25;;;10.10;99.90;;;;;;6045260;23;20256;-90
2022/10/12 08:38:09;;;;;;;17.50;7.93;;;10.30;99.90;;;;;;6043808;23;20045;-88
2022/10/12 08:40:49;;;;;;;15.95;7.25;;;10.40;99.90;;;;;;6044717;23;20014;-89
2022/10/12 08:43:31;;;;;;;17.48;7.75;;;10.50;99.90;;;;;;6044197;23;20080;-89
2022/10/12 08:45:59;;;;;;;15.75;6.93;;;10.70;99.90;;;;;;6044770;23;20018;-89
2022/10/12 08:48:31;;;;;;;17.48;7.10;;;10.80;99.90;;;;;;6043804;23;20015;-88
2022/10/12 08:51:01;;;;;;;20.05;7.82;;;10.90;99.90;;;;;;6044213;23;20042;-88
2022/10/12 08:53:34;;;;;;;15.40;7.63;;;11.10;99.90;;;;;;6068055;23;20022;-87
2022/10/12 08:56:00;;;;;;;15.95;7.07;;;11.00;99.90;;;;;;6043556;23;20520;-88
2022/10/12 08:58:32;;;;;;;16.80;7.40;;;11.20;99.90;;;;;;6018852;23;20025;-88
2022/10/12 09:01:36;;;;;;;17.75;7.05;;;11.10;99.90;;;;;;6042783;23;20418;-87
2022/10/12 09:04:26;;;;;;;17.00;6.78;;;11.20;99.90;;;;;;6067400;23;20025;-90
2022/10/12 09:07:18;;;;;;;17.05;6.85;;;11.20;99.90;;;;;;6044133;23;20060;-88
2022/10/12 09:10:11;;;;;;;15.63;6.10;;;11.10;99.90;;;;;;6024927;23;20065;-88
2022/10/12 09:12:55;;;;;;;14.45;6.05;;;11.10;99.90;;;;;;6042852;23;20487;-87
2022/10/12 09:15:27;;;;;;;15.82;5.97;;;11.10;99.90;;;;;;6043661;23;20018;-87
2022/10/12 09:17:55;;;;;;;13.35;5.35;;;11.10;99.90;;;;;;6043700;23;20014;-88
2022/10/12 09:20:26;;;;;;;18.10;5.60;;;11.00;99.90;;;;;;6043487;23;20054;-87
2022/10/12 09:23:06;;;;;;;16.30;6.25;;;11.00;99.90;;;;;;6042637;23;20528;-92
2022/10/12 09:25:32;;;;;;;18.77;6.25;;;11.10;99.90;;;;;;6044138;23;20015;-91
2022/10/12 09:28:13;;;;;;;14.95;5.78;;;11.10;99.90;;;;;;6020050;23;20027;-90
2022/10/12 09:30:44;;;;;;;18.13;5.82;;;11.10;99.90;;;;;;6043842;23;20014;-88
2022/10/12 09:33:26;;;;;;;14.73;5.72;;;11.10;99.90;;;;;;6067189;23;20014;-88
2022/10/12 09:35:53;;;;;;;18.53;6.97;;;11.10;99.90;;;;;;6043128;23;20164;-86
2022/10/12 09:38:20;;;;;;;16.13;5.60;;;11.20;99.90;;;;;;6042142;23;20274;-87
2022/10/12 09:40:46;;;;;;;15.40;5.85;;;11.30;99.90;;;;;;6020507;23;20022;-88
2022/10/12 09:43:14;;;;;;;16.85;6.03;;;11.30;99.90;;;;;;6043202;23;20464;-88
2022/10/12 09:45:40;;;;;;;18.95;6.72;;;11.50;99.90;;;;;;6042266;23;20014;-88
2022/10/12 09:48:16;;;;;;;17.48;6.10;;;11.60;99.90;;;;;;6019386;23;20013;-87
2022/10/12 09:50:53;;;;;;;17.45;5.80;;;11.70;99.90;;;;;;6043994;23;20024;-88
2022/10/12 09:53:21;;;;;;;15.88;5.50;;;11.80;99.90;;;;;;6042643;23;20025;-90
2022/10/12 09:55:56;;;;;;;14.90;5.78;;;11.90;99.90;;;;;;6066974;23;20033;-90
2022/10/12 09:58:25;;;;;;;15.30;5.78;;;12.00;99.90;;;;;;6043713;23;20061;-88
2022/10/12 10:01:20;;;;;;;16.58;5.70;;;12.10;99.90;;;;;;6044036;23;20039;-88
2022/10/12 10:03:50;;;;;;;15.60;5.20;;;12.20;99.90;;;;;;6042918;23;20085;-88
2022/10/12 10:06:23;;;;;;;13.70;4.75;;;12.30;99.90;;;;;;6064832;23;20019;-88
2022/10/12 10:08:49;;;;;;;15.23;4.82;;;12.40;99.90;;;;;;6067235;23;20081;-89
2022/10/12 10:11:24;;;;;;;15.43;4.28;;;12.40;99.90;;;;;;6043592;23;20014;-88
2022/10/12 10:13:52;;;;;;;13.00;4.20;;;12.50;99.90;;;;;;6042225;23;20464;-88
2022/10/12 10:16:21;;;;;;;13.18;4.30;;;12.60;99.90;;;;;;6042447;23;20014;-89
2022/10/12 10:18:54;;;;;;;11.38;3.47;;;12.60;99.90;;;;;;6067769;23;20046;-90
2022/10/12 10:21:38;;;;;;;11.77;3.38;;;12.70;99.90;;;;;;6043373;23;20018;-90
2022/10/12 10:24:18;;;;;;;13.15;3.22;;;12.70;99.90;;;;;;6043300;23;20519;-90
2022/10/12 10:26:53;;;;;;;12.13;2.70;;;12.80;99.90;;;;;;6043563;23;20271;-89
2022/10/12 10:29:33;;;;;;;11.60;3.20;;;12.90;99.90;;;;;;6041273;23;20018;-89
2022/10/12 10:32:28;;;;;;;10.77;3.10;;;13.00;99.90;;;;;;6042324;23;20085;-90
2022/10/12 10:35:12;;;;;;;14.00;3.10;;;13.00;99.90;;;;;;6066336;23;20033;-88
2022/10/12 10:37:57;;;;;;;12.55;3.00;;;13.10;99.90;;;;;;6068587;23;20141;-88
2022/10/12 10:40:48;;;;;;;12.45;3.13;;;13.20;99.90;;;;;;6049691;23;20515;-88
2022/10/12 10:43:34;;;;;;;13.90;3.00;;;13.30;99.90;;;;;;6071105;23;20050;-88
2022/10/12 10:46:25;;;;;;;11.57;3.15;;;13.40;99.90;;;;;;6068547;23;20050;-88
2022/10/12 10:49:05;;;;;;;13.68;3.03;;;13.40;99.90;;;;;;6038600;23;20018;-87
2022/10/12 10:52:04;;;;;;;15.77;3.80;;;13.50;99.90;;;;;;6041901;23;20017;-89
2022/10/12 10:54:39;;;;;;;11.77;3.10;;;13.50;99.90;;;;;;6002757;23;20011;-90
2022/10/12 10:57:17;;;;;;;13.93;3.70;;;13.80;99.90;;;;;;6041272;23;20019;-89
2022/10/12 10:59:46;;;;;;;14.73;3.58;;;13.70;99.90;;;;;;6041378;23;20018;-87
2022/10/12 11:02:47;;;;;;;12.02;3.53;;;13.80;99.90;;;;;;6064788;23;20347;-88
2022/10/12 11:05:28;;;;;;;13.00;2.90;;;13.90;99.90;;;;;;5966472;23;20017;-90
2022/10/12 11:07:54;;;;;;;13.27;2.67;;;13.90;99.90;;;;;;6040871;23;20535;-89
2022/10/12 11:10:29;;;;;;;12.48;3.08;;;13.90;99.90;;;;;;6039861;23;20392;-90
2022/10/12 11:13:11;;;;;;;12.43;3.08;;;14.00;99.90;;;;;;6066844;23;20065;-87
2022/10/12 11:15:47;;;;;;;13.55;2.55;;;14.10;99.90;;;;;;6044744;23;20088;-90
2022/10/12 11:18:35;;;;;;;12.68;2.42;;;14.10;99.90;;;;;;6043007;23;20101;-89
2022/10/12 11:21:09;;;;;;;8.88;2.35;;;14.10;99.90;;;;;;6041069;23;20504;-89
2022/10/12 11:24:03;;;;;;;11.27;2.63;;;14.10;99.90;;;;;;6074296;23;20022;-89
2022/10/12 11:26:35;;;;;;;10.80;2.80;;;14.20;99.90;;;;;;6015737;23;20030;-89
2022/10/12 11:29:02;;;;;;;13.85;2.67;;;14.30;99.90;;;;;;6040580;23;20050;-88
2022/10/12 11:31:35;;;;;;;10.13;2.65;;;14.30;99.90;;;;;;6016667;23;20090;-91
2022/10/12 11:34:05;;;;;;;11.10;2.50;;;14.40;99.90;;;;;;6040816;23;20014;-90
2022/10/12 11:36:35;;;;;;;12.25;2.75;;;14.50;99.90;;;;;;6040821;23;20015;-88
2022/10/12 11:39:06;;;;;;;11.27;2.90;;;14.60;99.90;;;;;;6037909;23;20046;-89
2022/10/12 11:41:37;;;;;;;11.23;2.83;;;14.60;99.90;;;;;;6062901;23;20086;-90
2022/10/12 11:44:28;;;;;;;9.32;2.22;;;14.70;99.90;;;;;;6066614;23;20459;-89
2022/10/12 11:47:03;;;;;;;10.25;2.65;;;14.70;99.90;;;;;;6050027;23;20019;-90
2022/10/12 11:49:43;;;;;;;10.13;2.45;;;14.80;99.90;;;;;;6066645;23;20037;-89
2022/10/12 11:52:11;;;;;;;11.75;2.88;;;14.90;99.90;;;;;;6065595;23;20650;-88
2022/10/12 11:55:01;;;;;;;9.77;2.67;;;14.90;99.90;;;;;;6066315;23;20034;-88
2022/10/12 11:57:32;;;;;;;12.77;2.28;;;14.90;99.90;;;;;;6065830;23;20022;-89
2022/10/12 12:00:03;;;;;;;10.05;2.10;;;15.00;99.90;;;;;;6066561;23;20018;-89
2022/10/12 12:02:59;;;;;;;9.20;2.28;;;15.00;99.90;;;;;;6065690;23;20033;-92
2022/10/12 12:05:31;;;;;;;9.68;2.30;;;15.00;99.90;;;;;;6033277;23;20014;-88
2022/10/12 12:07:57;;;;;;;10.00;2.42;;;15.10;99.90;;;;;;6042030;23;20026;-87
2022/10/12 12:10:33;;;;;;;12.20;2.50;;;15.10;99.90;;;;;;6064889;23;20022;-89
2022/10/12 12:13:11;;;;;;;10.20;2.40;;;15.20;99.90;;;;;;6064593;23;20460;-90
2022/10/12 12:16:01;;;;;;;10.43;2.25;;;15.20;99.90;;;;;;6066792;23;20100;-90
2022/10/12 12:18:51;;;;;;;14.32;2.58;;;15.20;99.90;;;;;;6063332;23;20054;-89
2022/10/12 12:21:17;;;;;;;9.38;2.03;;;15.20;99.90;;;;;;6064854;23;20019;-89
2022/10/12 12:23:54;;;;;;;8.57;2.00;;;15.30;99.90;;;;;;6041060;23;20073;-89
2022/10/12 12:26:25;;;;;;;8.93;2.10;;;15.30;99.90;;;;;;6065241;23;20065;-88
2022/10/12 12:29:08;;;;;;;7.82;1.75;;;15.40;99.90;;;;;;6065636;23;20018;-89
2022/10/12 12:31:34;;;;;;;8.63;2.22;;;15.40;99.90;;;;;;6064564;23;20117;-86
2022/10/12 12:34:09;;;;;;;9.60;2.20;;;15.40;99.90;;;;;;6040169;23;20046;-89
2022/10/12 12:36:43;;;;;;;9.93;2.30;;;15.40;99.90;;;;;;6065465;23;20050;-91
2022/10/12 12:39:36;;;;;;;11.90;2.65;;;15.50;99.90;;;;;;6065782;23;20026;-90
2022/10/12 12:42:05;;;;;;;10.60;2.30;;;15.40;99.90;;;;;;6013009;23;20442;-88
2022/10/12 12:44:35;;;;;;;11.95;2.40;;;15.40;99.90;;;;;;6064962;23;20074;-89
2022/10/12 12:47:04;;;;;;;8.95;1.85;;;15.50;99.90;;;;;;6065141;23;20011;-90
2022/10/12 12:50:22;;;;;;;11.32;2.42;;;15.40;99.90;;;;;;6065737;23;20022;-89
2022/10/12 12:52:48;;;;;;;9.10;2.42;;;15.50;99.90;;;;;;6006972;23;20019;-90
2022/10/12 12:55:17;;;;;;;8.32;2.33;;;15.50;99.90;;;;;;6042401;23;20019;-92
2022/10/12 12:58:04;;;;;;;10.48;2.22;;;15.50;99.90;;;;;;6065955;23;20433;-89
2022/10/12 13:00:48;;;;;;;12.02;2.33;;;15.60;99.90;;;;;;6065912;23;20062;-88
2022/10/12 13:03:40;;;;;;;9.35;2.30;;;15.70;99.90;;;;;;6064007;23;20022;-91
2022/10/12 13:06:09;;;;;;;8.77;2.10;;;15.70;99.90;;;;;;6063793;23;20448;-87